createdAt,value
2018-06-11T00:00:41.012Z,99817.72
2018-06-11T00:01:47.654Z,99813.64
2018-06-11T00:02:53.590Z,99811.47
2018-06-11T00:03:59.521Z,99807.94
2018-06-11T00:05:05.562Z,99818.93
2018-06-11T00:06:11.511Z,99821.08
2018-06-11T00:07:17.452Z,99821.72
2018-06-11T00:08:23.397Z,99824.70
2018-06-11T00:09:29.497Z,99830.19
2018-06-11T00:10:35.411Z,99826.02
2018-06-11T00:11:41.354Z,99827.00
2018-06-11T00:12:47.284Z,99826.31
2018-06-11T00:13:53.202Z,99827.64
2018-06-11T00:14:59.199Z,99821.33
2018-06-11T00:16:05.226Z,99819.98
2018-06-11T00:17:11.147Z,99819.64
2018-06-11T00:18:16.837Z,99824.97
2018-06-11T00:19:22.684Z,99815.64
2018-06-11T00:20:28.635Z,99818.31
2018-06-11T00:21:34.619Z,99812.81
2018-06-11T00:22:40.544Z,99820.31
2018-06-11T00:23:46.479Z,99822.43
2018-06-11T00:24:52.422Z,99829.09
2018-06-11T00:25:58.398Z,99831.59
2018-06-11T00:27:04.355Z,99830.74
2018-06-11T00:28:10.567Z,99832.08
2018-06-11T00:29:16.499Z,99831.88
2018-06-11T00:30:22.458Z,99823.88
2018-06-11T00:31:28.395Z,99819.39
2018-06-11T00:32:34.379Z,99816.23
2018-06-11T00:33:40.347Z,99823.24
2018-06-11T00:34:46.270Z,99821.22
2018-06-11T00:35:52.594Z,99822.23
2018-06-11T00:36:58.594Z,99819.71
2018-06-11T00:38:04.594Z,99825.19
2018-06-11T00:39:10.747Z,99827.19
2018-06-11T00:40:16.721Z,99827.13
2018-06-11T00:41:22.317Z,99821.48
2018-06-11T00:42:28.170Z,99820.15
2018-06-11T00:43:34.134Z,99820.78
2018-06-11T00:44:40.059Z,99823.94
2018-06-11T00:45:46.070Z,99817.42
2018-06-11T00:46:52.001Z,99822.09
2018-06-11T00:47:57.613Z,99821.10
2018-06-11T00:49:03.286Z,99824.75
2018-06-11T00:50:09.211Z,99824.55
2018-06-11T00:51:15.142Z,99828.55
2018-06-11T00:52:21.070Z,99822.69
2018-06-11T00:53:27.424Z,99822.55
2018-06-11T00:54:33.410Z,99819.33
2018-06-11T00:55:56.113Z,99824.34
2018-06-11T00:57:02.327Z,99827.30
2018-06-11T00:58:08.296Z,99825.61
2018-06-11T00:59:14.250Z,99825.61
2018-06-11T01:00:20.226Z,99832.62
2018-06-11T01:01:26.175Z,99834.61
2018-06-11T01:02:32.138Z,99833.57
2018-06-11T01:03:38.067Z,99838.89
2018-06-11T01:04:44.012Z,99845.66
2018-06-11T01:05:49.974Z,99843.00
2018-06-11T01:06:55.918Z,99841.84
2018-06-11T01:08:01.891Z,99843.17
2018-06-11T01:09:09.041Z,99841.84
2018-06-11T01:10:14.991Z,99848.63
2018-06-11T01:11:21.070Z,99846.19
2018-06-11T01:12:27.530Z,99846.19
2018-06-11T01:13:33.958Z,99845.48
2018-06-11T01:14:39.897Z,99843.17
2018-06-11T01:15:45.856Z,99838.83
2018-06-11T01:16:52.683Z,99841.48
2018-06-11T01:17:58.611Z,99841.00
2018-06-11T01:19:04.550Z,99839.52
2018-06-11T01:20:10.470Z,99836.52
2018-06-11T01:21:16.208Z,99839.52
2018-06-11T01:22:22.211Z,99834.87
2018-06-11T01:23:28.118Z,99835.56
2018-06-11T01:24:34.066Z,99832.59
2018-06-11T01:25:40.017Z,99831.46
2018-06-11T01:26:46.065Z,99835.00
2018-06-11T01:27:52.051Z,99829.70
2018-06-11T01:28:58.052Z,99827.56
2018-06-11T01:30:04.114Z,99826.44
2018-06-11T01:31:10.120Z,99831.44
2018-06-11T01:32:16.099Z,99833.78
2018-06-11T01:33:22.062Z,99830.98
2018-06-11T01:34:27.868Z,99836.16
2018-06-11T01:35:33.803Z,99833.15
2018-06-11T01:36:39.779Z,99836.16
2018-06-11T01:37:45.818Z,99833.50
2018-06-11T01:38:51.775Z,99828.31
2018-06-11T01:39:57.578Z,99830.14
2018-06-11T01:41:03.544Z,99825.48
2018-06-11T01:42:09.164Z,99827.59
2018-06-11T01:43:14.998Z,99827.77
2018-06-11T01:44:20.973Z,99833.37
2018-06-11T01:45:26.903Z,99832.89
2018-06-11T01:46:32.831Z,99828.72
2018-06-11T01:47:38.810Z,99829.70
2018-06-11T01:48:44.742Z,99828.02
2018-06-11T01:49:51.042Z,99824.86
2018-06-11T01:50:56.984Z,99831.84
2018-06-11T01:52:03.188Z,99827.33
2018-06-11T01:53:08.966Z,99837.48
2018-06-11T01:54:14.882Z,99836.99
2018-06-11T01:55:20.899Z,99852.97
2018-06-11T01:56:26.998Z,99844.00
2018-06-11T01:57:32.989Z,99840.70
2018-06-11T01:58:39.026Z,99846.20
2018-06-11T01:59:44.962Z,99847.05
2018-06-11T02:00:51.376Z,99843.25
2018-06-11T02:01:57.175Z,99846.09
2018-06-11T02:03:03.007Z,99841.26
2018-06-11T02:04:08.931Z,99837.09
2018-06-11T02:05:14.851Z,99838.24
2018-06-11T02:06:20.854Z,99840.06
2018-06-11T02:07:26.786Z,99839.41
2018-06-11T02:08:32.711Z,99839.26
2018-06-11T02:09:38.862Z,99840.06
2018-06-11T02:10:44.838Z,99834.91
2018-06-11T02:11:51.035Z,99832.25
2018-06-11T02:12:56.986Z,99831.41
2018-06-11T02:14:03.236Z,99827.70
2018-06-11T02:15:09.185Z,99829.98
2018-06-11T02:16:15.125Z,99827.98
2018-06-11T02:17:20.855Z,99826.27
2018-06-11T02:18:26.714Z,99828.91
2018-06-11T02:19:32.663Z,99830.70
2018-06-11T02:20:38.579Z,99837.45
2018-06-11T02:21:44.510Z,99840.55
2018-06-11T02:22:50.505Z,99842.16
2018-06-11T02:23:56.114Z,99844.99
2018-06-11T02:25:01.979Z,99843.27
2018-06-11T02:26:07.938Z,99844.53
2018-06-11T02:27:13.535Z,99842.81
2018-06-11T02:28:19.399Z,99840.11
2018-06-11T02:29:25.350Z,99839.58
2018-06-11T02:30:31.014Z,99844.06
2018-06-11T02:31:36.834Z,99852.67
2018-06-11T02:32:42.429Z,99851.87
2018-06-11T02:33:48.305Z,99847.70
2018-06-11T02:34:54.258Z,99854.70
2018-06-11T02:35:59.850Z,99852.40
2018-06-11T02:37:05.735Z,99849.25
2018-06-11T02:38:11.669Z,99855.69
2018-06-11T02:39:17.688Z,99856.04
2018-06-11T02:40:23.613Z,99859.89
2018-06-11T02:41:29.618Z,99851.73
2018-06-11T02:42:35.249Z,99854.47
2018-06-11T02:43:41.102Z,99851.98
2018-06-11T02:44:47.194Z,99856.02
2018-06-11T02:45:53.118Z,99859.56
2018-06-11T02:46:59.076Z,99859.28
2018-06-11T02:48:05.054Z,99856.90
2018-06-11T02:49:11.008Z,99853.40
2018-06-11T02:50:16.985Z,99852.41
2018-06-11T02:51:22.938Z,99857.60
2018-06-11T02:52:28.871Z,99850.95
2018-06-11T02:53:34.884Z,99851.64
2018-06-11T02:54:40.867Z,99849.30
2018-06-11T02:55:46.818Z,99855.95
2018-06-11T02:56:52.757Z,99849.61
2018-06-11T02:57:58.710Z,99850.91
2018-06-11T02:59:04.686Z,99852.59
2018-06-11T03:00:10.615Z,99854.73
2018-06-11T03:01:16.333Z,99852.06
2018-06-11T03:02:22.503Z,99851.58
2018-06-11T03:03:28.146Z,99855.92
2018-06-11T03:04:33.994Z,99850.91
2018-06-11T03:05:39.943Z,99849.47
2018-06-11T03:06:45.931Z,99849.54
2018-06-11T03:07:51.875Z,99848.87
2018-06-11T03:08:57.831Z,99850.52
2018-06-11T03:10:03.965Z,99856.02
2018-06-11T03:11:09.926Z,99845.86
2018-06-11T03:12:15.894Z,99850.95
2018-06-11T03:13:21.833Z,99853.16
2018-06-11T03:14:27.757Z,99849.02
2018-06-11T03:15:33.726Z,99855.50
2018-06-11T03:16:39.945Z,99856.20
2018-06-11T03:17:45.911Z,99853.50
2018-06-11T03:18:51.880Z,99853.02
2018-06-11T03:19:57.479Z,99857.19
2018-06-11T03:21:03.392Z,99852.70
2018-06-11T03:22:09.478Z,99857.42
2018-06-11T03:23:15.427Z,99853.12
2018-06-11T03:24:21.390Z,99858.27
2018-06-11T03:25:27.345Z,99859.25
2018-06-11T03:26:33.275Z,99860.48
2018-06-11T03:27:39.181Z,99860.48
2018-06-11T03:28:45.134Z,99865.80
2018-06-11T03:29:51.066Z,99869.80
2018-06-11T03:30:57.011Z,99867.31
2018-06-11T03:32:03.540Z,99868.50
2018-06-11T03:33:09.491Z,99869.52
2018-06-11T03:34:15.494Z,99872.19
2018-06-11T03:35:21.299Z,99871.52
2018-06-11T03:36:27.232Z,99874.49
2018-06-11T03:37:33.145Z,99872.22
2018-06-11T03:38:39.070Z,99880.06
2018-06-11T03:39:45.059Z,99874.56
2018-06-11T03:40:51.004Z,99873.02
2018-06-11T03:41:56.947Z,99871.06
2018-06-11T03:43:03.481Z,99872.22
2018-06-11T03:44:09.466Z,99873.75
2018-06-11T03:45:15.444Z,99870.22
2018-06-11T03:46:21.531Z,99873.23
2018-06-11T03:47:27.467Z,99873.86
2018-06-11T03:48:33.403Z,99873.69
2018-06-11T03:49:39.334Z,99880.03
2018-06-11T03:50:45.287Z,99878.59
2018-06-11T03:51:51.216Z,99877.55
2018-06-11T03:52:57.166Z,99878.38
2018-06-11T03:54:03.111Z,99879.08
2018-06-11T03:55:09.076Z,99883.61
2018-06-11T03:56:15.601Z,99881.29
2018-06-11T03:57:21.283Z,99873.83
2018-06-11T03:58:27.140Z,99881.78
2018-06-11T03:59:33.089Z,99878.98
2018-06-11T04:00:39.029Z,99884.30
2018-06-11T04:01:44.998Z,99880.98
2018-06-11T04:02:50.979Z,99881.81
2018-06-11T04:03:56.935Z,99877.88
2018-06-11T04:05:02.886Z,99878.76
2018-06-11T04:06:08.863Z,99877.08
2018-06-11T04:07:15.171Z,99877.08
2018-06-11T04:08:21.125Z,99881.91
2018-06-11T04:09:28.317Z,99878.20
2018-06-11T04:10:34.344Z,99883.70
2018-06-11T04:11:42.280Z,99885.36
2018-06-11T04:12:48.255Z,99887.34
2018-06-11T04:13:54.202Z,99888.37
2018-06-11T04:15:00.129Z,99881.36
2018-06-11T04:16:06.282Z,99885.56
2018-06-11T04:17:12.247Z,99879.39
2018-06-11T04:18:19.342Z,99885.70
2018-06-11T04:19:25.459Z,99877.88
2018-06-11T04:20:32.144Z,99883.53
2018-06-11T04:21:38.150Z,99878.20
2018-06-11T04:22:44.216Z,99877.71
2018-06-11T04:23:50.158Z,99878.06
2018-06-11T04:24:56.109Z,99885.24
2018-06-11T04:26:02.035Z,99889.80
2018-06-11T04:27:08.391Z,99889.97
2018-06-11T04:28:14.306Z,99892.31
2018-06-11T04:29:20.252Z,99897.88
2018-06-11T04:30:26.191Z,99892.93
2018-06-11T04:31:32.150Z,99887.00
2018-06-11T04:32:38.783Z,99889.66
2018-06-11T04:33:44.768Z,99893.05
2018-06-11T04:34:50.730Z,99889.71
2018-06-11T04:35:56.702Z,99893.42
2018-06-11T04:37:03.011Z,99891.77
2018-06-11T04:38:09.704Z,99887.13
2018-06-11T04:39:15.624Z,99886.64
2018-06-11T04:40:21.608Z,99894.11
2018-06-11T04:41:27.548Z,99891.13
2018-06-11T04:42:33.443Z,99892.61
2018-06-11T04:43:39.307Z,99894.11
2018-06-11T04:44:45.238Z,99892.52
2018-06-11T04:45:51.303Z,99898.86
2018-06-11T04:46:57.300Z,99900.05
2018-06-11T04:48:03.273Z,99896.40
2018-06-11T04:49:09.517Z,99896.92
2018-06-11T04:50:15.469Z,99896.42
2018-06-11T04:51:21.475Z,99899.95
2018-06-11T04:52:27.441Z,99899.31
2018-06-11T04:53:33.676Z,99899.83
2018-06-11T04:54:39.522Z,99902.99
2018-06-11T04:55:45.498Z,99894.66
2018-06-11T04:56:51.470Z,99904.67
2018-06-11T04:57:57.422Z,99898.84
2018-06-11T04:59:03.387Z,99899.34
2018-06-11T05:00:09.366Z,99903.81
2018-06-11T05:01:15.441Z,99897.63
2018-06-11T05:02:21.432Z,99906.62
2018-06-11T05:03:28.337Z,99902.27
2018-06-11T05:04:34.405Z,99907.26
2018-06-11T05:05:40.263Z,99911.73
2018-06-11T05:06:46.831Z,99906.72
2018-06-11T05:07:52.824Z,99909.18
2018-06-11T05:08:58.775Z,99913.36
2018-06-11T05:10:04.846Z,99910.84
2018-06-11T05:11:10.955Z,99914.63
2018-06-11T05:12:16.914Z,99912.26
2018-06-11T05:13:22.891Z,99915.41
2018-06-11T05:14:28.834Z,99916.60
2018-06-11T05:15:34.877Z,99920.11
2018-06-11T05:16:40.489Z,99913.80
2018-06-11T05:17:46.020Z,99916.77
2018-06-11T05:18:51.876Z,99915.44
2018-06-11T05:19:57.826Z,99916.45
2018-06-11T05:21:03.774Z,99915.62
2018-06-11T05:22:09.716Z,99911.27
2018-06-11T05:23:15.308Z,99910.08
2018-06-11T05:24:21.166Z,99915.06
2018-06-11T05:25:27.106Z,99908.58
2018-06-11T05:26:33.038Z,99916.05
2018-06-11T05:27:39.203Z,99922.66
2018-06-11T05:28:45.232Z,99919.30
2018-06-11T05:29:51.412Z,99925.89
2018-06-11T05:30:57.358Z,99924.39
2018-06-11T05:32:03.575Z,99928.17
2018-06-11T05:33:11.173Z,99929.83
2018-06-11T05:34:17.156Z,99933.97
2018-06-11T05:35:23.122Z,99943.61
2018-06-11T05:36:29.230Z,99942.42
2018-06-11T05:37:35.212Z,99939.58
2018-06-11T05:38:41.183Z,99939.23
2018-06-11T05:39:47.138Z,99937.20
2018-06-11T05:40:53.120Z,99942.20
2018-06-11T05:41:59.041Z,99938.70
2018-06-11T05:43:05.475Z,99939.19
2018-06-11T05:44:11.459Z,99940.66
2018-06-11T05:45:17.402Z,99942.80
2018-06-11T05:46:23.370Z,99945.91
2018-06-11T05:47:29.348Z,99947.25
2018-06-11T05:48:35.266Z,99932.42
2018-06-11T05:49:41.197Z,99935.30
2018-06-11T05:50:47.143Z,99939.64
2018-06-11T05:51:53.111Z,99939.30
2018-06-11T05:52:59.197Z,99946.97
2018-06-11T05:54:05.203Z,99936.81
2018-06-11T05:55:11.159Z,99939.16
2018-06-11T05:56:17.147Z,99942.13
2018-06-11T05:57:23.118Z,99938.14
2018-06-11T05:58:29.051Z,99935.09
2018-06-11T05:59:35.078Z,99939.25
2018-06-11T06:00:41.043Z,99945.36
2018-06-11T06:01:47.054Z,99950.68
2018-06-11T06:02:53.019Z,99937.86
2018-06-11T06:03:58.999Z,99939.98
2018-06-11T06:05:04.999Z,99939.19
2018-06-11T06:06:10.984Z,99942.06
2018-06-11T06:07:16.907Z,99938.91
2018-06-11T06:08:22.853Z,99941.08
2018-06-11T06:09:28.807Z,99948.23
2018-06-11T06:10:34.751Z,99938.91
2018-06-11T06:11:40.694Z,99938.55
2018-06-11T06:12:46.611Z,99950.75
2018-06-11T06:13:52.550Z,99950.68
2018-06-11T06:14:58.485Z,99948.58
2018-06-11T06:16:04.461Z,99954.30
2018-06-11T06:17:10.426Z,99954.61
2018-06-11T06:18:16.415Z,99951.00
2018-06-11T06:19:22.403Z,99953.53
2018-06-11T06:20:28.459Z,99952.73
2018-06-11T06:21:34.415Z,99951.78
2018-06-11T06:22:40.430Z,99951.50
2018-06-11T06:23:46.405Z,99956.51
2018-06-11T06:24:52.363Z,99956.22
2018-06-11T06:25:58.311Z,99953.59
2018-06-11T06:27:04.279Z,99956.08
2018-06-11T06:28:10.207Z,99947.59
2018-06-11T06:29:17.879Z,99943.22
2018-06-11T06:30:24.937Z,99945.22
2018-06-11T06:31:32.510Z,99944.83
2018-06-11T06:32:38.115Z,99947.50
2018-06-11T06:33:44.007Z,99950.80
2018-06-11T06:34:50.085Z,99946.31
2018-06-11T06:35:56.222Z,99948.83
2018-06-11T06:37:02.183Z,99950.34
2018-06-11T06:38:08.243Z,99953.00
2018-06-11T06:39:14.656Z,99955.53
2018-06-11T06:40:20.802Z,99954.19
2018-06-11T06:41:26.791Z,99950.20
2018-06-11T06:42:33.230Z,99947.56
2018-06-11T06:43:39.230Z,99940.55
2018-06-11T06:44:45.384Z,99945.25
2018-06-11T06:45:51.407Z,99940.94
2018-06-11T06:46:57.558Z,99946.61
2018-06-11T06:48:03.657Z,99950.33
2018-06-11T06:49:09.796Z,99944.33
2018-06-11T06:50:15.835Z,99949.20
2018-06-11T06:51:21.763Z,99946.56
2018-06-11T06:52:27.428Z,99943.12
2018-06-11T06:53:33.319Z,99937.53
2018-06-11T06:54:39.469Z,99935.27
2018-06-11T06:55:45.392Z,99942.16
2018-06-11T06:56:51.847Z,99948.70
2018-06-11T06:57:57.807Z,99946.92
2018-06-11T06:59:03.734Z,99940.83
2018-06-11T07:00:09.682Z,99937.20
2018-06-11T07:01:15.834Z,99942.77
2018-06-11T07:02:21.847Z,99942.77
2018-06-11T07:03:27.796Z,99938.58
2018-06-11T07:04:33.740Z,99938.23
2018-06-11T07:05:39.707Z,99934.06
2018-06-11T07:06:45.699Z,99938.91
2018-06-11T07:07:52.182Z,99943.08
2018-06-11T07:08:58.224Z,99947.77
2018-06-11T07:10:04.325Z,99942.44
2018-06-11T07:11:10.415Z,99945.95
2018-06-11T07:12:16.407Z,99942.60
2018-06-11T07:13:22.363Z,99945.14
2018-06-11T07:14:28.318Z,99941.99
2018-06-11T07:15:34.307Z,99940.42
2018-06-11T07:16:40.306Z,99944.62
2018-06-11T07:17:46.275Z,99939.44
2018-06-11T07:18:52.898Z,99936.62
2018-06-11T07:19:58.946Z,99936.14
2018-06-11T07:21:04.916Z,99938.48
2018-06-11T07:22:10.871Z,99937.19
2018-06-11T07:23:16.903Z,99941.70
2018-06-11T07:24:23.325Z,99937.84
2018-06-11T07:25:29.359Z,99938.83
2018-06-11T07:26:35.475Z,99936.62
2018-06-11T07:27:41.803Z,99936.27
2018-06-11T07:28:48.012Z,99938.92
2018-06-11T07:29:54.095Z,99930.88
2018-06-11T07:31:00.456Z,99933.34
2018-06-11T07:32:06.229Z,99930.16
2018-06-11T07:33:12.115Z,99939.14
2018-06-11T07:34:18.095Z,99934.64
2018-06-11T07:35:24.451Z,99937.31
2018-06-11T07:36:30.617Z,99941.45
2018-06-11T07:37:36.607Z,99941.74
2018-06-11T07:38:42.532Z,99939.57
2018-06-11T07:39:48.489Z,99942.56
2018-06-11T07:40:54.750Z,99947.91
2018-06-11T07:42:01.832Z,99945.56
2018-06-11T07:43:09.518Z,99944.20
2018-06-11T07:44:15.733Z,99946.53
2018-06-11T07:45:22.054Z,99948.16
2018-06-11T07:46:28.009Z,99941.47
2018-06-11T07:47:34.064Z,99942.63
2018-06-11T07:48:39.731Z,99942.92
2018-06-11T07:49:45.779Z,99947.73
2018-06-11T07:50:51.757Z,99946.41
2018-06-11T07:51:57.915Z,99942.85
2018-06-11T07:53:03.901Z,99943.86
2018-06-11T07:54:09.841Z,99941.71
2018-06-11T07:55:15.810Z,99954.06
2018-06-11T07:56:21.785Z,99945.56
2018-06-11T07:57:27.699Z,99946.90
2018-06-11T07:58:33.458Z,99945.56
2018-06-11T07:59:39.417Z,99950.41
2018-06-11T08:00:45.381Z,99953.40
2018-06-11T08:01:51.337Z,99955.39
2018-06-11T08:02:57.313Z,99960.09
2018-06-11T08:04:03.465Z,99960.95
2018-06-11T08:05:09.410Z,99963.30
2018-06-11T08:06:15.409Z,99965.45
2018-06-11T08:07:21.384Z,99965.00
2018-06-11T08:08:27.315Z,99967.55
2018-06-11T08:09:33.323Z,99970.44
2018-06-11T08:10:39.320Z,99969.62
2018-06-11T08:11:45.282Z,99966.97
2018-06-11T08:12:51.243Z,99972.33
2018-06-11T08:13:57.659Z,99974.55
2018-06-11T08:15:03.653Z,99974.91
2018-06-11T08:16:09.969Z,99974.29
2018-06-11T08:17:15.918Z,99976.33
2018-06-11T08:18:21.943Z,99977.34
2018-06-11T08:19:27.935Z,99980.53
2018-06-11T08:20:34.007Z,99985.69
2018-06-11T08:21:40.010Z,99979.02
2018-06-11T08:22:46.023Z,99978.37
2018-06-11T08:23:51.955Z,99976.06
2018-06-11T08:24:57.938Z,99976.77
2018-06-11T08:26:03.917Z,99982.47
2018-06-11T08:27:09.855Z,99986.99
2018-06-11T08:28:15.801Z,99983.01
2018-06-11T08:29:21.771Z,99984.05
2018-06-11T08:30:27.694Z,99984.94
2018-06-11T08:31:33.654Z,99981.78
2018-06-11T08:32:39.606Z,99988.86
2018-06-11T08:33:45.627Z,99985.72
2018-06-11T08:34:51.729Z,99982.20
2018-06-11T08:35:57.934Z,99985.56
2018-06-11T08:37:04.190Z,99987.92
2018-06-11T08:38:10.205Z,99986.75
2018-06-11T08:39:16.188Z,99987.45
2018-06-11T08:40:22.130Z,99985.28
2018-06-11T08:41:28.109Z,99986.75
2018-06-11T08:42:34.085Z,99999.95
2018-06-11T08:43:40.070Z,99996.11
2018-06-11T08:44:46.015Z,99993.44
2018-06-11T08:45:51.959Z,100001.29
2018-06-11T08:46:57.921Z,99997.64
2018-06-11T08:48:03.903Z,99997.65
2018-06-11T08:49:09.873Z,99992.94
2018-06-11T08:50:15.829Z,99997.62
2018-06-11T08:51:21.770Z,100002.63
2018-06-11T08:52:27.854Z,100000.47
2018-06-11T08:53:33.839Z,99993.77
2018-06-11T08:54:39.778Z,99999.95
2018-06-11T08:55:45.719Z,99998.80
2018-06-11T08:56:51.686Z,99992.43
2018-06-11T08:57:57.644Z,99995.46
2018-06-11T08:59:03.651Z,99996.95
2018-06-11T09:00:10.094Z,99996.94
2018-06-11T09:01:16.272Z,100000.30
2018-06-11T09:02:22.343Z,99999.64
2018-06-11T09:03:28.667Z,99997.29
2018-06-11T09:04:34.727Z,99996.95
2018-06-11T09:05:40.704Z,99994.61
2018-06-11T09:06:46.910Z,99998.77
2018-06-11T09:07:52.879Z,100000.92
2018-06-11T09:08:59.214Z,99996.25
2018-06-11T09:10:05.236Z,99999.77
2018-06-11T09:11:11.259Z,100004.78
2018-06-11T09:12:17.235Z,100005.96
2018-06-11T09:13:23.197Z,100001.94
2018-06-11T09:14:29.135Z,100000.92
2018-06-11T09:15:35.183Z,99994.92
2018-06-11T09:16:41.120Z,99996.77
2018-06-11T09:17:47.058Z,99997.94
2018-06-11T09:18:53.035Z,99998.57
2018-06-11T09:19:58.995Z,99992.89
2018-06-11T09:21:04.991Z,99997.89
2018-06-11T09:22:10.990Z,99997.21
2018-06-11T09:23:16.942Z,99996.19
2018-06-11T09:24:23.042Z,99991.14
2018-06-11T09:25:29.002Z,99986.78
2018-06-11T09:26:35.006Z,99985.20
2018-06-11T09:27:41.314Z,99985.09
2018-06-11T09:28:47.438Z,99979.11
2018-06-11T09:29:53.405Z,99981.98
2018-06-11T09:30:59.424Z,99981.82
2018-06-11T09:32:05.559Z,99983.30
2018-06-11T09:33:11.629Z,99983.59
2018-06-11T09:34:18.446Z,99983.38
2018-06-11T09:35:24.885Z,99987.97
2018-06-11T09:36:30.818Z,99981.83
2018-06-11T09:37:37.176Z,99979.42
2018-06-11T09:38:43.117Z,99983.79
2018-06-11T09:39:49.054Z,99983.79
2018-06-11T09:40:54.998Z,99986.09
2018-06-11T09:42:00.936Z,99992.59
2018-06-11T09:43:06.963Z,99986.20
2018-06-11T09:44:13.712Z,99993.36
2018-06-11T09:45:19.727Z,99989.50
2018-06-11T09:46:25.714Z,99981.62
2018-06-11T09:47:31.647Z,99983.90
2018-06-11T09:48:37.621Z,99981.66
2018-06-11T09:49:43.237Z,99983.17
2018-06-11T09:50:49.210Z,99982.03
2018-06-11T09:51:55.143Z,99979.98
2018-06-11T09:53:01.100Z,99982.54
2018-06-11T09:54:07.056Z,99981.15
2018-06-11T09:55:13.015Z,99983.11
2018-06-11T09:56:19.006Z,99980.00
2018-06-11T09:57:24.979Z,99982.33
2018-06-11T09:58:31.804Z,99986.95
2018-06-11T09:59:39.436Z,99984.52
2018-06-11T10:00:46.984Z,99986.42
2018-06-11T10:01:53.727Z,99985.33
2018-06-11T10:03:00.196Z,99979.84
2018-06-11T10:04:06.837Z,99979.31
2018-06-11T10:05:12.841Z,99977.42
2018-06-11T10:06:19.530Z,99976.43
2018-06-11T10:07:25.863Z,99980.63
2018-06-11T10:08:32.358Z,99969.99
2018-06-11T10:09:38.851Z,99975.97
2018-06-11T10:10:45.326Z,99977.42
2018-06-11T10:11:51.799Z,99976.07
2018-06-11T10:12:58.164Z,99976.14
2018-06-11T10:14:05.348Z,99971.52
2018-06-11T10:15:11.818Z,99970.77
2018-06-11T10:16:18.984Z,99969.41
2018-06-11T10:17:25.291Z,99968.09
2018-06-11T10:18:36.436Z,99965.88
2018-06-11T10:19:42.563Z,99965.00
2018-06-11T10:20:49.242Z,99969.80
2018-06-11T10:21:56.810Z,99963.16
2018-06-11T10:23:03.606Z,99967.09
2018-06-11T10:24:09.697Z,99967.94
2018-06-11T10:25:16.009Z,99967.42
2018-06-11T10:26:22.430Z,99965.34
2018-06-11T10:27:28.387Z,99960.92
2018-06-11T10:28:34.893Z,99965.95
2018-06-11T10:29:42.202Z,99965.54
2018-06-11T10:30:48.588Z,99964.70
2018-06-11T10:31:54.822Z,99963.44
2018-06-11T10:33:02.015Z,99961.70
2018-06-11T10:34:08.498Z,99961.95
2018-06-11T10:35:16.014Z,99967.62
2018-06-11T10:36:22.713Z,99960.67
2018-06-11T10:37:29.007Z,99963.48
2018-06-11T10:38:35.404Z,99964.13
2018-06-11T10:39:41.960Z,99968.03
2018-06-11T10:40:48.702Z,99968.86
2018-06-11T10:41:55.048Z,99972.60
2018-06-11T10:43:01.434Z,99973.30
2018-06-11T10:44:07.479Z,99974.79
2018-06-11T10:45:13.146Z,99974.27
2018-06-11T10:46:19.058Z,99971.13
2018-06-11T10:47:24.686Z,99968.59
2018-06-11T10:48:31.037Z,99961.84
2018-06-11T10:49:37.824Z,99957.48
2018-06-11T10:50:44.201Z,99951.98
2018-06-11T10:51:50.860Z,99946.25
2018-06-11T10:52:57.327Z,99946.36
2018-06-11T10:54:04.156Z,99947.59
2018-06-11T10:55:12.277Z,99948.52
2018-06-11T10:56:18.244Z,99944.63
2018-06-11T10:57:25.047Z,99945.47
2018-06-11T10:58:31.377Z,99942.08
2018-06-11T10:59:37.337Z,99936.70
2018-06-11T11:00:43.304Z,99936.72
2018-06-11T11:01:49.875Z,99934.20
2018-06-11T11:02:55.898Z,99932.67
2018-06-11T11:04:01.937Z,99932.61
2018-06-11T11:05:08.650Z,99930.45
2018-06-11T11:06:14.916Z,99932.14
2018-06-11T11:07:20.903Z,99938.95
2018-06-11T11:08:26.918Z,99926.22
2018-06-11T11:09:32.859Z,99934.13
2018-06-11T11:10:42.439Z,99934.44
2018-06-11T11:11:48.510Z,99932.73
2018-06-11T11:12:54.515Z,99935.47
2018-06-11T11:14:00.494Z,99941.66
2018-06-11T11:15:06.548Z,99936.64
2018-06-11T11:16:12.694Z,99945.69
2018-06-11T11:17:18.662Z,99937.20
2018-06-11T11:18:24.427Z,99950.54
2018-06-11T11:19:30.275Z,99945.78
2018-06-11T11:20:42.512Z,99944.66
2018-06-11T11:21:48.499Z,99940.20
2018-06-11T11:23:00.708Z,99942.53
2018-06-11T11:24:06.672Z,99942.82
2018-06-11T11:25:15.247Z,99943.02
2018-06-11T11:26:21.404Z,99941.17
2018-06-11T11:27:27.401Z,99942.19
2018-06-11T11:28:33.415Z,99943.02
2018-06-11T11:29:39.474Z,99942.64
2018-06-11T11:30:45.936Z,99940.52
2018-06-11T11:31:51.875Z,99942.25
2018-06-11T11:32:57.818Z,99942.08
2018-06-11T11:34:03.808Z,99940.74
2018-06-11T11:35:09.772Z,99940.83
2018-06-11T11:36:15.746Z,99935.52
2018-06-11T11:37:21.777Z,99926.25
2018-06-11T11:38:28.516Z,99934.80
2018-06-11T11:39:35.177Z,99930.28
2018-06-11T11:40:41.581Z,99931.28
2018-06-11T11:41:48.940Z,99930.53
2018-06-11T11:42:55.396Z,99917.92
2018-06-11T11:44:01.674Z,99909.70
2018-06-11T11:45:08.299Z,99910.70
2018-06-11T11:46:15.448Z,99903.70
2018-06-11T11:47:23.750Z,99905.45
2018-06-11T11:48:30.670Z,99898.30
2018-06-11T11:49:37.251Z,99903.83
2018-06-11T11:50:46.148Z,99905.66
2018-06-11T11:51:53.325Z,99897.95
2018-06-11T11:53:00.327Z,99899.25
2018-06-11T11:54:07.997Z,99895.36
2018-06-11T11:55:14.370Z,99892.34
2018-06-11T11:56:21.693Z,99888.27
2018-06-11T11:57:27.618Z,99886.81
2018-06-11T11:58:33.555Z,99879.76
2018-06-11T11:59:40.026Z,99887.89
2018-06-11T12:00:45.977Z,99883.98
2018-06-11T12:01:51.978Z,99879.28
2018-06-11T12:02:57.755Z,99877.28
2018-06-11T12:04:04.078Z,99872.72
2018-06-11T12:05:10.024Z,99872.25
2018-06-11T12:06:15.935Z,99865.22
2018-06-11T12:07:21.904Z,99863.37
2018-06-11T12:08:27.875Z,99864.33
2018-06-11T12:09:33.818Z,99865.02
2018-06-11T12:10:39.882Z,99860.86
2018-06-11T12:11:45.824Z,99857.67
2018-06-11T12:12:51.837Z,99856.67
2018-06-11T12:13:57.746Z,99857.00
2018-06-11T12:15:04.046Z,99855.49
2018-06-11T12:16:09.999Z,99853.27
2018-06-11T12:17:15.947Z,99851.08
2018-06-11T12:18:21.975Z,99850.83
2018-06-11T12:19:27.983Z,99850.95
2018-06-11T12:20:33.898Z,99847.30
2018-06-11T12:21:39.825Z,99839.75
2018-06-11T12:22:45.748Z,99842.77
2018-06-11T12:23:52.331Z,99840.37
2018-06-11T12:24:58.249Z,99839.81
2018-06-11T12:26:04.590Z,99832.62
2018-06-11T12:27:10.580Z,99838.08
2018-06-11T12:28:17.151Z,99834.31
2018-06-11T12:29:23.103Z,99837.22
2018-06-11T12:30:30.156Z,99828.66
2018-06-11T12:31:36.093Z,99820.61
2018-06-11T12:32:42.227Z,99819.73
2018-06-11T12:33:48.166Z,99824.09
2018-06-11T12:34:54.148Z,99826.39
2018-06-11T12:36:00.281Z,99827.56
2018-06-11T12:37:06.521Z,99826.22
2018-06-11T12:38:12.134Z,99827.39
2018-06-11T12:39:17.998Z,99825.55
2018-06-11T12:40:24.061Z,99822.03
2018-06-11T12:41:30.052Z,99820.52
2018-06-11T12:42:36.205Z,99809.79
2018-06-11T12:43:42.297Z,99801.67
2018-06-11T12:44:49.690Z,99799.53
2018-06-11T12:45:56.176Z,99803.02
2018-06-11T12:47:03.045Z,99800.61
2018-06-11T12:48:09.811Z,99798.89
2018-06-11T12:49:16.671Z,99797.50
